Time;durP1;ratioP1;P1;durP2;ratioP2;P2;SDS_P1;SDS_P2;PMS_P1;PMS_P2;Temp;Humidity;BMP_temperature;BMP_pressure;BME280_temperature;BME280_humidity;BME280_pressure;Samples;Min_cycle;Max_cycle;Signal;HPM_P1;HPM_P2
2022/06/09 00:00:37;;;;;;;8.90;4.30;;;14.20;1.00;;;;;;6250809;22;20857;-82
2022/06/09 00:03:13;;;;;;;15.03;4.30;;;14.20;1.00;;;;;;6250418;22;20219;-82
2022/06/09 00:05:40;;;;;;;12.90;2.87;;;14.20;1.00;;;;;;6250968;22;20719;-83
2022/06/09 00:08:07;;;;;;;13.03;3.03;;;14.20;1.00;;;;;;6277628;22;20433;-83
2022/06/09 00:10:37;;;;;;;11.00;3.30;;;14.20;1.00;;;;;;6250315;22;20387;-83
2022/06/09 00:13:06;;;;;;;7.07;2.70;;;14.20;1.00;;;;;;6277740;22;20439;-83
2022/06/09 00:15:34;;;;;;;9.17;3.07;;;14.20;1.00;;;;;;6250941;22;20390;-83
2022/06/09 00:18:04;;;;;;;13.13;2.93;;;14.10;1.00;;;;;;6250935;22;20888;-83
2022/06/09 00:20:30;;;;;;;16.00;3.57;;;14.10;1.00;;;;;;6278614;22;20447;-82
2022/06/09 00:22:56;;;;;;;9.80;3.00;;;14.10;1.00;;;;;;6285898;22;20454;-82
2022/06/09 00:25:21;;;;;;;6.60;3.30;;;14.10;1.00;;;;;;6281090;22;20303;-82
2022/06/09 00:27:47;;;;;;;16.73;3.50;;;14.10;1.00;;;;;;6250173;22;20180;-83
2022/06/09 00:30:17;;;;;;;15.63;3.17;;;14.10;1.00;;;;;;6250367;22;20207;-83
2022/06/09 00:32:43;;;;;;;12.00;3.50;;;14.10;1.00;;;;;;6277438;22;20214;-82
2022/06/09 00:35:21;;;;;;;13.27;3.73;;;14.10;1.00;;;;;;6251263;22;20444;-82
2022/06/09 00:37:46;;;;;;;6.87;2.77;;;14.20;1.00;;;;;;6250505;22;20378;-83
2022/06/09 00:40:14;;;;;;;7.00;2.90;;;14.20;1.00;;;;;;6250456;22;20388;-83
2022/06/09 00:42:39;;;;;;;11.97;3.57;;;14.20;1.00;;;;;;6250248;22;20194;-83
2022/06/09 00:45:26;;;;;;;9.20;2.90;;;14.30;1.00;;;;;;6252643;22;20879;-85
2022/06/09 00:47:57;;;;;;;9.53;2.83;;;14.30;1.00;;;;;;6283514;22;20150;-85
2022/06/09 00:50:26;;;;;;;15.17;3.70;;;14.40;1.00;;;;;;6290381;22;20364;-85
2022/06/09 00:52:57;;;;;;;8.20;3.70;;;14.40;1.00;;;;;;6293877;22;20367;-84
2022/06/09 00:55:26;;;;;;;10.77;3.23;;;14.40;1.00;;;;;;6255716;22;20400;-84
2022/06/09 00:58:14;;;;;;;6.17;2.63;;;14.50;1.00;;;;;;6280227;22;20464;-83
2022/06/09 01:00:50;;;;;;;4.93;3.13;;;14.50;1.00;;;;;;6281320;22;20410;-85
2022/06/09 01:03:18;;;;;;;11.10;2.97;;;14.50;1.00;;;;;;6280478;22;20409;-84
2022/06/09 01:05:45;;;;;;;12.03;3.87;;;14.50;1.00;;;;;;6254988;22;20397;-85
2022/06/09 01:08:12;;;;;;;12.93;3.57;;;14.50;1.00;;;;;;6280910;22;20463;-83
2022/06/09 01:10:38;;;;;;;8.80;3.00;;;14.50;1.00;;;;;;6281876;22;20368;-84
2022/06/09 01:13:05;;;;;;;14.00;4.00;;;14.50;1.00;;;;;;6253802;22;20390;-84
2022/06/09 01:16:01;;;;;;;16.40;3.73;;;14.40;1.00;;;;;;6254577;22;20268;-84
2022/06/09 01:18:37;;;;;;;11.60;3.37;;;14.40;1.00;;;;;;6282957;22;20386;-84
2022/06/09 01:21:02;;;;;;;9.10;4.10;;;14.30;1.00;;;;;;6283420;22;20827;-84
2022/06/09 01:23:37;;;;;;;13.70;3.70;;;14.30;1.00;;;;;;6283544;22;20411;-84
2022/06/09 01:26:08;;;;;;;9.27;3.23;;;14.20;1.00;;;;;;6282750;22;20247;-84
2022/06/09 01:29:01;;;;;;;10.87;3.63;;;14.20;1.00;;;;;;6283858;22;20402;-84
2022/06/09 01:31:47;;;;;;;13.60;3.90;;;14.10;1.00;;;;;;6281982;22;20406;-84
2022/06/09 01:34:21;;;;;;;11.13;3.87;;;14.20;1.00;;;;;;6209649;22;20499;-85
2022/06/09 01:36:59;;;;;;;14.30;3.77;;;14.20;1.00;;;;;;6256046;22;21007;-84
2022/06/09 01:39:45;;;;;;;10.80;3.97;;;14.20;1.00;;;;;;6283942;22;20359;-83
2022/06/09 01:42:31;;;;;;;13.10;4.20;;;14.10;1.00;;;;;;6283208;22;20371;-84
2022/06/09 01:45:21;;;;;;;25.77;5.43;;;14.20;1.00;;;;;;6283033;22;20410;-84
2022/06/09 01:48:04;;;;;;;16.17;4.10;;;14.10;1.00;;;;;;6283928;22;20364;-83
2022/06/09 01:50:49;;;;;;;14.20;3.50;;;14.20;1.00;;;;;;6282029;22;20357;-82
2022/06/09 01:53:20;;;;;;;16.23;4.13;;;14.20;1.00;;;;;;6282506;22;20415;-84
2022/06/09 01:55:51;;;;;;;10.90;4.20;;;14.20;1.00;;;;;;6255554;22;20403;-84
2022/06/09 01:58:21;;;;;;;16.37;4.13;;;14.20;1.00;;;;;;6282246;22;20429;-84
2022/06/09 02:00:48;;;;;;;15.33;4.40;;;14.20;1.00;;;;;;6281728;22;20367;-85
2022/06/09 02:03:18;;;;;;;21.00;4.63;;;14.20;1.00;;;;;;6282827;22;20375;-84
2022/06/09 02:05:48;;;;;;;16.70;4.43;;;14.20;1.00;;;;;;6282584;22;20390;-84
2022/06/09 02:08:17;;;;;;;14.03;4.97;;;14.20;1.00;;;;;;6282668;22;20394;-84
2022/06/09 02:10:52;;;;;;;15.57;5.03;;;14.20;1.00;;;;;;6283396;22;20722;-84
2022/06/09 02:13:21;;;;;;;10.83;4.80;;;14.20;1.00;;;;;;6282798;22;20390;-84
2022/06/09 02:15:50;;;;;;;12.73;5.00;;;14.20;1.00;;;;;;6281652;22;20398;-84
2022/06/09 02:18:19;;;;;;;13.60;5.23;;;14.20;1.00;;;;;;6255907;22;20458;-84
2022/06/09 02:21:15;;;;;;;15.00;5.80;;;14.20;1.00;;;;;;6282608;22;20375;-84
2022/06/09 02:23:40;;;;;;;15.00;5.23;;;14.20;1.00;;;;;;6282568;22;20499;-85
2022/06/09 02:26:06;;;;;;;22.57;5.87;;;14.20;1.00;;;;;;6282637;22;20390;-85
2022/06/09 02:28:33;;;;;;;12.67;5.70;;;14.20;1.00;;;;;;6256088;22;20167;-83
2022/06/09 02:30:59;;;;;;;30.63;7.20;;;14.20;1.00;;;;;;6255605;22;20396;-84
2022/06/09 02:33:25;;;;;;;18.07;7.00;;;14.20;1.00;;;;;;6255846;22;20395;-84
2022/06/09 02:35:51;;;;;;;11.17;5.00;;;14.10;1.00;;;;;;6283670;22;20169;-84
2022/06/09 02:38:18;;;;;;;19.27;6.77;;;14.20;1.00;;;;;;6255608;22;20387;-83
2022/06/09 02:40:44;;;;;;;24.30;5.93;;;14.20;1.00;;;;;;6283026;22;20368;-84
2022/06/09 02:43:10;;;;;;;17.20;6.70;;;14.10;1.00;;;;;;6283192;22;20708;-83
2022/06/09 02:45:36;;;;;;;21.63;7.03;;;14.10;1.00;;;;;;6283072;22;20407;-84
2022/06/09 02:48:02;;;;;;;15.17;7.13;;;14.20;1.00;;;;;;6282861;22;20175;-83
2022/06/09 02:50:29;;;;;;;14.40;5.60;;;14.10;1.00;;;;;;6255624;22;20478;-84
2022/06/09 02:52:55;;;;;;;17.70;6.73;;;14.20;1.00;;;;;;6283642;22;20407;-83
2022/06/09 02:55:20;;;;;;;21.80;6.83;;;14.10;1.00;;;;;;6255339;22;20456;-84
2022/06/09 02:57:46;;;;;;;20.73;7.10;;;14.10;1.00;;;;;;6284702;22;20522;-83
2022/06/09 03:00:14;;;;;;;16.47;6.20;;;14.10;1.00;;;;;;6258001;22;20168;-82
2022/06/09 03:02:42;;;;;;;18.80;6.97;;;14.10;1.00;;;;;;6286347;22;20179;-83
2022/06/09 03:05:08;;;;;;;14.33;5.43;;;14.20;1.00;;;;;;6286110;22;20901;-81
2022/06/09 03:07:34;;;;;;;14.77;7.23;;;14.20;1.00;;;;;;6287945;22;20448;-83
2022/06/09 03:09:59;;;;;;;18.47;6.47;;;14.30;1.00;;;;;;6288199;22;20375;-83
2022/06/09 03:12:25;;;;;;;21.47;6.73;;;14.30;1.00;;;;;;6281786;22;21038;-81
2022/06/09 03:14:50;;;;;;;19.60;6.20;;;14.30;1.00;;;;;;6282171;22;20228;-83
2022/06/09 03:17:16;;;;;;;18.30;7.43;;;14.30;1.00;;;;;;6254372;22;20177;-83
2022/06/09 03:19:42;;;;;;;24.97;7.67;;;14.40;1.00;;;;;;6283589;22;20159;-83
2022/06/09 03:22:08;;;;;;;26.57;7.10;;;14.40;1.00;;;;;;6282924;22;20478;-83
2022/06/09 03:24:33;;;;;;;16.50;6.50;;;14.40;1.00;;;;;;6282319;22;20169;-83
2022/06/09 03:26:59;;;;;;;21.47;7.00;;;14.40;1.00;;;;;;6254755;22;20388;-84
2022/06/09 03:29:25;;;;;;;26.93;8.03;;;14.40;1.00;;;;;;6282882;22;20153;-84
2022/06/09 03:31:51;;;;;;;20.90;7.00;;;14.40;1.00;;;;;;6281954;22;20504;-84
2022/06/09 03:34:18;;;;;;;21.23;7.30;;;14.40;1.00;;;;;;6256591;22;20173;-83
2022/06/09 03:36:44;;;;;;;23.03;7.60;;;14.40;1.00;;;;;;6282368;22;20159;-85
2022/06/09 03:39:11;;;;;;;21.13;7.53;;;14.40;1.00;;;;;;6282449;22;20396;-84
2022/06/09 03:41:36;;;;;;;21.37;7.60;;;14.40;1.00;;;;;;6281837;22;20380;-84
2022/06/09 03:44:03;;;;;;;21.27;7.67;;;14.40;1.00;;;;;;6282015;22;20409;-84
2022/06/09 03:46:28;;;;;;;28.10;9.07;;;14.40;1.00;;;;;;6281956;22;20194;-85
2022/06/09 03:48:54;;;;;;;21.60;7.80;;;14.40;1.00;;;;;;6282864;22;20379;-84
2022/06/09 03:51:19;;;;;;;21.13;8.17;;;14.40;1.00;;;;;;6283041;22;20286;-84
2022/06/09 03:53:45;;;;;;;25.83;8.50;;;14.40;1.00;;;;;;6289372;22;20232;-84
2022/06/09 03:56:18;;;;;;;18.43;8.17;;;14.40;1.00;;;;;;6266309;22;20168;-83
2022/06/09 03:58:46;;;;;;;16.00;7.80;;;14.40;1.00;;;;;;6285569;22;20141;-84
2022/06/09 04:01:17;;;;;;;29.20;8.53;;;14.50;1.00;;;;;;6281278;22;20755;-84
2022/06/09 04:03:46;;;;;;;20.13;8.13;;;14.50;1.00;;;;;;6255939;22;20387;-83
2022/06/09 04:06:15;;;;;;;21.57;8.07;;;14.60;1.00;;;;;;6253615;22;20457;-84
2022/06/09 04:08:41;;;;;;;23.97;8.60;;;14.70;1.00;;;;;;6283988;22;20410;-84
2022/06/09 04:11:07;;;;;;;20.40;7.47;;;14.70;1.00;;;;;;6281430;22;20374;-84
2022/06/09 04:13:32;;;;;;;21.20;9.27;;;14.70;1.00;;;;;;6282781;22;20414;-85
2022/06/09 04:15:59;;;;;;;21.90;8.80;;;14.70;1.00;;;;;;6282041;22;20175;-85
2022/06/09 04:18:24;;;;;;;19.30;8.47;;;14.80;1.00;;;;;;6254932;22;20300;-84
2022/06/09 04:20:50;;;;;;;24.87;8.37;;;14.80;1.00;;;;;;6281735;22;20374;-82
2022/06/09 04:23:15;;;;;;;25.33;9.53;;;14.90;1.00;;;;;;6282154;22;20155;-85
2022/06/09 04:25:41;;;;;;;19.50;9.03;;;15.00;1.00;;;;;;6280730;22;20179;-84
2022/06/09 04:28:06;;;;;;;22.37;8.87;;;15.10;1.00;;;;;;6281278;22;20156;-85
2022/06/09 04:30:32;;;;;;;16.43;7.70;;;15.30;1.00;;;;;;6282040;22;20494;-84
2022/06/09 04:32:58;;;;;;;18.10;8.27;;;15.50;1.00;;;;;;6281797;22;20175;-83
2022/06/09 04:35:24;;;;;;;22.77;7.70;;;15.60;1.00;;;;;;6280886;22;20957;-85
2022/06/09 04:38:02;;;;;;;23.23;9.33;;;15.80;1.00;;;;;;6255264;22;20167;-84
2022/06/09 04:40:37;;;;;;;21.40;8.47;;;16.00;1.00;;;;;;6281275;22;20747;-84
2022/06/09 04:43:04;;;;;;;18.87;7.63;;;16.20;1.00;;;;;;6254802;22;20433;-84
2022/06/09 04:45:30;;;;;;;13.53;6.70;;;16.40;1.00;;;;;;6281267;22;20434;-83
2022/06/09 04:47:55;;;;;;;22.00;7.27;;;16.50;99.90;;;;;;6282177;22;20390;-83
2022/06/09 04:50:21;;;;;;;25.37;7.73;;;16.70;99.90;;;;;;6283758;22;20560;-84
2022/06/09 04:52:47;;;;;;;25.90;7.07;;;16.70;99.90;;;;;;6257779;22;20187;-84
2022/06/09 04:55:13;;;;;;;17.83;6.60;;;16.50;99.90;;;;;;6283887;22;20436;-86
2022/06/09 04:57:39;;;;;;;26.80;8.27;;;16.40;99.90;;;;;;6284675;22;20375;-84
2022/06/09 05:00:07;;;;;;;18.77;8.53;;;16.30;99.90;;;;;;6284536;22;20230;-85
2022/06/09 05:02:32;;;;;;;24.73;7.70;;;16.30;99.90;;;;;;6284763;22;20159;-85
2022/06/09 05:04:58;;;;;;;34.00;7.77;;;16.30;99.90;;;;;;6283857;22;20486;-85
2022/06/09 05:07:25;;;;;;;18.23;9.33;;;16.20;99.90;;;;;;6283973;22;20455;-85
2022/06/09 05:09:50;;;;;;;20.10;8.20;;;16.20;99.90;;;;;;6284252;22;20602;-85
2022/06/09 05:12:16;;;;;;;21.33;8.30;;;16.20;99.90;;;;;;6283945;22;20410;-84
2022/06/09 05:14:42;;;;;;;21.37;7.30;;;16.30;99.90;;;;;;6284444;22;20179;-84
2022/06/09 05:17:07;;;;;;;25.83;8.40;;;16.30;99.90;;;;;;6284368;22;20174;-85
2022/06/09 05:19:33;;;;;;;25.50;7.97;;;16.50;99.90;;;;;;6284497;22;20149;-85
2022/06/09 05:21:58;;;;;;;16.37;7.70;;;16.70;99.90;;;;;;6284201;22;20160;-85
2022/06/09 05:24:24;;;;;;;26.47;8.10;;;16.90;27.00;;;;;;6257242;22;20172;-85
2022/06/09 05:26:50;;;;;;;20.93;8.57;;;17.10;1.00;;;;;;6283478;22;20148;-86
2022/06/09 05:29:16;;;;;;;18.40;8.40;;;17.30;1.00;;;;;;6284359;22;20154;-86
2022/06/09 05:31:43;;;;;;;18.73;7.90;;;17.50;99.90;;;;;;6283998;22;20192;-85
2022/06/09 05:34:09;;;;;;;18.10;7.17;;;17.70;1.00;;;;;;6257814;22;20461;-85
2022/06/09 05:36:35;;;;;;;26.80;8.23;;;17.80;99.10;;;;;;6282713;22;20495;-84
2022/06/09 05:47:19;;;;;;;15.23;7.90;;;18.20;1.00;;;;;;6282712;22;20431;-84
2022/06/09 05:49:48;;;;;;;15.57;7.00;;;18.20;1.00;;;;;;6255715;22;20399;-86
2022/06/09 05:52:15;;;;;;;20.17;8.13;;;18.20;1.00;;;;;;6282514;22;20410;-85
2022/06/09 05:54:41;;;;;;;23.70;9.20;;;18.10;1.00;;;;;;6281571;22;20427;-84
2022/06/09 05:57:07;;;;;;;19.20;8.00;;;18.10;1.00;;;;;;6282957;22;20375;-82
2022/06/09 05:59:32;;;;;;;23.63;9.20;;;18.20;1.00;;;;;;6283743;22;20154;-83
2022/06/09 06:01:58;;;;;;;18.07;9.13;;;18.30;99.90;;;;;;6282550;22;20218;-85
2022/06/09 06:04:23;;;;;;;16.40;8.50;;;18.20;99.90;;;;;;6253518;22;20301;-82
2022/06/09 06:06:49;;;;;;;22.13;9.97;;;18.20;99.90;;;;;;6257054;22;20159;-85
2022/06/09 06:09:18;;;;;;;27.77;9.57;;;18.20;99.90;;;;;;6254220;22;20159;-82
2022/06/09 06:11:46;;;;;;;15.77;8.63;;;18.10;1.00;;;;;;6254252;22;20244;-81
2022/06/09 06:14:12;;;;;;;24.33;8.97;;;18.00;1.00;;;;;;6280898;22;20404;-81
2022/06/09 06:16:39;;;;;;;23.23;9.97;;;17.90;1.00;;;;;;6280442;22;20384;-84
2022/06/09 06:19:06;;;;;;;20.20;10.20;;;17.90;1.00;;;;;;6279811;22;20214;-82
2022/06/09 06:21:32;;;;;;;29.00;9.87;;;17.90;1.00;;;;;;6279908;22;20412;-80
2022/06/09 06:23:58;;;;;;;29.00;11.50;;;17.80;1.00;;;;;;6279790;22;20374;-82
2022/06/09 06:26:23;;;;;;;29.27;10.77;;;17.70;1.00;;;;;;6252102;22;20399;-82
2022/06/09 06:28:50;;;;;;;18.03;10.40;;;17.70;99.90;;;;;;6280686;22;20192;-82
2022/06/09 06:31:16;;;;;;;22.57;10.80;;;17.80;99.90;;;;;;6279871;22;20189;-82
2022/06/09 06:33:42;;;;;;;18.20;10.37;;;17.90;99.90;;;;;;6253313;22;20386;-83
2022/06/09 06:36:08;;;;;;;15.63;10.40;;;18.10;1.00;;;;;;6282701;22;20398;-84
2022/06/09 06:38:33;;;;;;;26.33;12.50;;;18.00;99.90;;;;;;6285575;22;20178;-86
2022/06/09 06:40:59;;;;;;;17.63;10.50;;;18.10;99.90;;;;;;6285127;22;20369;-84
2022/06/09 06:43:25;;;;;;;22.07;10.37;;;18.20;1.00;;;;;;6285975;22;20613;-84
2022/06/09 07:01:42;;;;;;;21.63;12.20;;;18.20;1.00;;;;;;6164486;23;20426;-84
2022/06/09 07:33:55;;;;;;;21.03;10.90;;;19.50;99.90;;;;;;6223122;22;20448;-84
2022/06/09 07:46:42;;;;;;;18.57;11.33;;;18.80;1.00;;;;;;6178918;23;20400;-83
2022/06/09 07:52:58;;;;;;;;;;;;;;;;;;;;;
2022/06/09 07:56:13;;;;;;;10.57;6.33;;;31.30;99.90;;;;;;6193660;23;20429;-84
2022/06/09 08:02:45;;;;;;;;;;;;;;;;;;;;;
2022/06/09 08:09:21;;;;;;;15.63;7.20;;;30.60;99.90;;;;;;6158232;23;20410;-84
2022/06/09 08:35:03;;;;;;;14.80;7.57;;;28.40;99.90;;;;;;6200476;23;20396;-83
2022/06/09 08:41:29;;;;;;;;;;;;;;;;;;;;;
2022/06/09 08:44:36;;;;;;;18.80;6.60;;;33.70;99.90;;;;;;6222505;23;20426;-83
2022/06/09 08:47:12;;;;;;;9.90;5.80;;;33.10;99.90;;;;;;6220635;23;20395;-83
2022/06/09 08:49:51;;;;;;;7.73;5.20;;;33.80;99.90;;;;;;6198326;23;20955;-84
2022/06/09 08:52:41;;;;;;;8.67;6.27;;;34.20;99.90;;;;;;6223738;23;20361;-84
2022/06/09 08:55:42;;;;;;;10.13;6.63;;;32.90;99.90;;;;;;6222823;23;20408;-83
2022/06/09 08:58:19;;;;;;;11.30;5.93;;;31.20;99.90;;;;;;6186209;23;20392;-81
2022/06/09 09:01:20;;;;;;;13.70;5.40;;;32.00;99.90;;;;;;6224762;23;20367;-85
2022/06/09 09:03:56;;;;;;;9.53;4.70;;;35.90;99.90;;;;;;6215153;23;20404;-85
2022/06/09 09:06:25;;;;;;;9.67;4.80;;;39.10;99.90;;;;;;6197621;23;20436;-85
2022/06/09 09:08:55;;;;;;;9.23;4.40;;;40.80;99.90;;;;;;6197845;23;20727;-84
2022/06/09 09:11:52;;;;;;;9.53;4.47;;;42.30;99.90;;;;;;6196977;23;20519;-85
2022/06/09 09:14:28;;;;;;;6.67;4.37;;;43.50;99.90;;;;;;6196618;23;20380;-85
2022/06/09 09:17:11;;;;;;;7.63;4.33;;;44.10;99.90;;;;;;6196867;23;20368;-85
2022/06/09 09:19:47;;;;;;;6.83;4.13;;;43.70;99.90;;;;;;6223848;23;20384;-84
2022/06/09 09:22:48;;;;;;;5.30;3.80;;;42.50;99.90;;;;;;6224730;23;20408;-86
2022/06/09 09:26:08;;;;;;;10.63;4.83;;;41.30;99.90;;;;;;6218506;23;20428;-84
2022/06/09 09:28:50;;;;;;;14.90;4.93;;;38.40;99.90;;;;;;6198336;23;20407;-85
2022/06/09 09:31:32;;;;;;;6.93;4.63;;;40.00;99.90;;;;;;6197963;23;20407;-84
2022/06/09 09:34:02;;;;;;;7.93;4.33;;;38.50;99.90;;;;;;6194497;23;20358;-85
2022/06/09 09:36:35;;;;;;;8.80;5.20;;;36.20;99.90;;;;;;6166939;23;20444;-84
2022/06/09 09:49:15;;;;;;;9.30;3.93;;;40.20;99.90;;;;;;6178309;23;20377;-86
2022/06/09 09:52:02;;;;;;;7.00;3.53;;;40.90;99.90;;;;;;6169098;23;20927;-84
2022/06/09 10:01:05;;;;;;;8.20;4.20;;;31.70;99.90;;;;;;6186005;23;20378;-84
2022/06/09 10:09:35;;;;;;;12.40;4.00;;;27.50;99.90;;;;;;6195772;23;20361;-83
2022/06/09 10:12:27;;;;;;;12.93;3.87;;;27.70;99.90;;;;;;6165048;23;20421;-83
2022/06/09 10:15:03;;;;;;;13.53;4.67;;;28.10;99.90;;;;;;6188751;23;20433;-82
2022/06/09 10:17:48;;;;;;;8.93;3.83;;;28.80;99.90;;;;;;6165222;23;20378;-84
2022/06/09 10:20:16;;;;;;;11.70;4.07;;;28.50;99.90;;;;;;6192013;23;20363;-84
2022/06/09 10:22:56;;;;;;;15.93;4.53;;;27.80;99.90;;;;;;6164574;23;20426;-83
2022/06/09 10:25:29;;;;;;;9.17;4.03;;;27.00;99.90;;;;;;6191455;23;20412;-83
2022/06/09 10:28:17;;;;;;;15.70;5.17;;;26.40;99.90;;;;;;6165591;23;20389;-83
2022/06/09 10:30:58;;;;;;;10.37;4.20;;;26.00;99.90;;;;;;6165662;23;20847;-85
2022/06/09 10:33:56;;;;;;;;;;;;;;;;;;;;;
2022/06/09 10:37:28;;;;;;;;;;;;;;;;;;;;;
2022/06/09 10:40:28;;;;;;;8.23;4.50;;;28.10;99.90;;;;;;6217974;23;20384;-85
2022/06/09 10:43:23;;;;;;;;;;;;;;;;;;;;;
2022/06/09 10:56:12;;;;;;;13.93;5.50;;;28.50;99.90;;;;;;6226006;23;20407;-85
2022/06/09 10:59:21;;;;;;;8.70;3.77;;;28.50;99.90;;;;;;6199204;23;20381;-84
2022/06/09 11:01:49;;;;;;;7.60;3.60;;;28.90;99.90;;;;;;6107855;23;20398;-85
2022/06/09 11:14:29;;;;;;;12.37;3.90;;;29.40;99.90;;;;;;6204485;23;20391;-83
2022/06/09 11:17:30;;;;;;;;;;;;;;;;;;;;;
2022/06/09 11:20:22;;;;;;;7.03;3.77;;;27.10;99.90;;;;;;6225900;23;20380;-83
2022/06/09 11:23:43;;;;;;;12.30;5.57;;;25.80;99.90;;;;;;6225901;23;20818;-84
2022/06/09 11:26:54;;;;;;;;;;;;;;;;;;;;;
2022/06/09 11:33:53;;;;;;;;;;;;;;;;;;;;;
2022/06/09 11:40:18;;;;;;;10.83;4.40;;;25.80;99.90;;;;;;6163156;23;20393;-85
2022/06/09 12:01:25;;;;;;;;;;;;;;;;;;;;;
2022/06/09 12:12:28;;;;;;;5.47;3.20;;;21.40;99.90;;;;;;6309616;22;20433;-84
2022/06/09 12:16:11;;;;;;;;;;;;;;;;;;;;;
2022/06/09 12:19:48;;;;;;;;;;;;;;;;;;;;;
2022/06/09 12:23:33;;;;;;;9.60;3.47;;;18.80;99.90;;;;;;6219656;22;20517;-85
2022/06/09 12:36:31;;;;;;;;;;;;;;;;;;;;;
2022/06/09 12:53:50;;;;;;;;;;;;;;;;;;;;;
2022/06/09 13:03:42;;;;;;;;;;;;;;;;;;;;;
2022/06/09 13:07:08;;;;;;;;;;;;;;;;;;;;;
2022/06/09 13:14:26;;;;;;;;;;;;;;;;;;;;;
2022/06/09 14:06:54;;;;;;;;;;;;;;;;;;;;;
2022/06/09 14:10:02;;;;;;;;;;;;;;;;;;;;;
2022/06/09 14:16:47;;;;;;;;;;;;;;;;;;;;;
2022/06/09 16:31:06;;;;;;;;;;;;;;;;;;;;;
2022/06/09 16:41:08;;;;;;;;;;;;;;;;;;;;;
2022/06/09 16:55:18;;;;;;;;;;;;;;;;;;;;;
2022/06/09 17:17:46;;;;;;;5.03;2.73;;;22.40;99.90;;;;;;6189017;22;20763;-86
2022/06/09 17:20:13;;;;;;;6.07;2.20;;;22.20;99.90;;;;;;6282287;22;20866;-85
2022/06/09 17:22:39;;;;;;;7.80;3.10;;;22.10;99.90;;;;;;6282588;22;20431;-84
2022/06/09 17:25:06;;;;;;;8.10;2.90;;;22.00;99.90;;;;;;6282277;22;20392;-84
2022/06/09 17:27:33;;;;;;;5.70;2.60;;;21.90;99.90;;;;;;6280823;22;20380;-83
2022/06/09 17:29:59;;;;;;;6.97;2.30;;;21.90;99.90;;;;;;6253770;22;20398;-85
2022/06/09 17:32:25;;;;;;;4.60;2.27;;;22.00;99.90;;;;;;6282275;22;20738;-85
2022/06/09 17:34:54;;;;;;;6.07;2.10;;;22.00;99.90;;;;;;6280330;22;20383;-85
2022/06/09 17:37:20;;;;;;;5.53;2.63;;;22.10;99.90;;;;;;6280930;22;20469;-82
2022/06/09 17:39:46;;;;;;;4.43;2.10;;;22.20;99.90;;;;;;6274644;22;20845;-85
2022/06/09 17:42:12;;;;;;;2.47;2.07;;;22.10;99.90;;;;;;6282025;22;20477;-85
2022/06/09 17:44:37;;;;;;;9.20;1.93;;;22.10;99.90;;;;;;6253321;22;20160;-85
2022/06/09 17:47:03;;;;;;;4.83;2.10;;;22.10;99.90;;;;;;6279631;22;20801;-85
2022/06/09 17:49:29;;;;;;;8.47;1.97;;;22.00;99.90;;;;;;6281555;22;20629;-84
2022/06/09 17:51:54;;;;;;;9.20;2.27;;;21.90;99.90;;;;;;6282675;22;20404;-85
2022/06/09 17:54:20;;;;;;;6.00;1.90;;;21.90;99.90;;;;;;6281866;22;20173;-85
2022/06/09 17:56:47;;;;;;;8.10;3.03;;;21.80;99.90;;;;;;6252990;22;20246;-84
2022/06/09 17:59:13;;;;;;;4.10;1.83;;;21.80;99.90;;;;;;6255119;22;20161;-85
2022/06/09 18:01:39;;;;;;;6.87;2.10;;;21.70;99.90;;;;;;6285685;22;20373;-85
2022/06/09 18:04:04;;;;;;;5.43;2.10;;;21.60;99.90;;;;;;6284059;22;20149;-83
2022/06/09 18:06:30;;;;;;;3.70;2.20;;;21.60;99.90;;;;;;6283014;22;20364;-84
2022/06/09 18:08:56;;;;;;;12.50;2.60;;;21.50;99.90;;;;;;6287755;22;20267;-86
2022/06/09 18:11:22;;;;;;;7.93;3.10;;;21.40;99.90;;;;;;6286193;22;20370;-84
2022/06/09 18:13:49;;;;;;;7.60;2.43;;;21.40;99.90;;;;;;6257788;22;20234;-84
2022/06/09 18:16:18;;;;;;;5.67;2.20;;;21.30;99.90;;;;;;6279880;22;20374;-84
2022/06/09 18:18:43;;;;;;;4.80;2.40;;;21.30;99.90;;;;;;6282348;22;20448;-85
2022/06/09 18:21:09;;;;;;;6.27;2.53;;;21.20;99.90;;;;;;6278294;22;20394;-82
2022/06/09 18:23:36;;;;;;;5.00;2.60;;;21.20;99.90;;;;;;6282009;22;20183;-84
2022/06/09 18:26:03;;;;;;;9.63;3.13;;;21.20;99.90;;;;;;6281501;22;20181;-83
2022/06/09 18:28:29;;;;;;;7.90;3.37;;;21.10;99.90;;;;;;6279904;22;20740;-84
2022/06/09 18:30:57;;;;;;;6.33;3.00;;;21.10;99.90;;;;;;6278201;22;20390;-83
2022/06/09 18:33:23;;;;;;;7.27;2.70;;;21.10;99.90;;;;;;6278469;22;20445;-84
2022/06/09 18:35:48;;;;;;;10.23;3.63;;;21.00;99.90;;;;;;6281524;22;20378;-83
2022/06/09 18:38:16;;;;;;;5.97;2.80;;;21.00;99.90;;;;;;6278474;22;20156;-82
2022/06/09 18:40:43;;;;;;;7.03;3.30;;;21.00;99.90;;;;;;6280065;22;20158;-82
2022/06/09 18:43:09;;;;;;;4.40;2.60;;;20.90;99.90;;;;;;6279509;22;20465;-83
2022/06/09 18:45:41;;;;;;;6.53;3.27;;;20.80;99.90;;;;;;6282931;22;20405;-83
2022/06/09 18:48:08;;;;;;;5.10;3.30;;;20.80;99.90;;;;;;6279502;22;20397;-84
2022/06/09 18:50:35;;;;;;;4.63;2.90;;;20.80;99.90;;;;;;6280037;22;20843;-83
2022/06/09 18:53:02;;;;;;;10.83;6.20;;;20.80;99.90;;;;;;6279849;22;20419;-84
2022/06/09 18:55:30;;;;;;;8.43;4.80;;;20.70;99.90;;;;;;6282011;22;20758;-83
2022/06/09 18:57:56;;;;;;;7.70;3.27;;;20.70;99.90;;;;;;6278820;22;20390;-83
2022/06/09 19:00:21;;;;;;;3.87;2.40;;;20.70;99.90;;;;;;6278746;22;20855;-82
2022/06/09 19:02:47;;;;;;;6.67;2.50;;;20.70;99.90;;;;;;6280918;22;20474;-83
2022/06/09 19:05:14;;;;;;;3.03;2.30;;;20.60;99.90;;;;;;6279169;22;20501;-82
2022/06/09 19:07:40;;;;;;;4.43;2.20;;;20.50;99.90;;;;;;6281107;22;20145;-83
2022/06/09 19:10:08;;;;;;;5.60;2.60;;;20.50;99.90;;;;;;6279527;22;20870;-83
2022/06/09 19:12:35;;;;;;;6.07;2.67;;;20.50;99.90;;;;;;6280249;22;20402;-83
2022/06/09 19:15:01;;;;;;;7.17;3.57;;;20.40;99.90;;;;;;6278559;22;20448;-82
2022/06/09 19:17:26;;;;;;;7.40;2.77;;;20.40;99.90;;;;;;6278409;22;20384;-83
2022/06/09 19:19:52;;;;;;;4.90;2.50;;;20.30;99.90;;;;;;6280726;22;20594;-84
2022/06/09 19:22:17;;;;;;;4.60;2.83;;;20.30;99.90;;;;;;6279642;22;20186;-83
2022/06/09 19:24:43;;;;;;;4.43;3.00;;;20.20;99.90;;;;;;6279313;22;20577;-83
2022/06/09 19:27:10;;;;;;;7.50;3.30;;;20.20;99.90;;;;;;6280502;22;20144;-83
2022/06/09 19:29:36;;;;;;;9.90;3.53;;;20.20;99.90;;;;;;6284516;22;20145;-83
2022/06/09 19:32:03;;;;;;;10.83;3.40;;;20.10;99.90;;;;;;6284936;22;20401;-83
2022/06/09 19:34:28;;;;;;;7.47;3.60;;;20.10;99.90;;;;;;6283838;22;20233;-83
2022/06/09 19:36:55;;;;;;;5.40;3.90;;;20.00;99.90;;;;;;6276877;22;20389;-83
2022/06/09 19:39:21;;;;;;;4.70;3.10;;;20.00;99.90;;;;;;6278790;22;20155;-83
2022/06/09 19:41:47;;;;;;;8.40;3.77;;;19.90;99.90;;;;;;6276965;22;20580;-83
2022/06/09 19:44:13;;;;;;;8.53;3.33;;;19.90;99.90;;;;;;6279420;22;20524;-83
2022/06/09 19:46:39;;;;;;;6.80;3.83;;;19.80;99.90;;;;;;6277018;22;20161;-82
2022/06/09 19:49:06;;;;;;;6.90;3.77;;;19.80;99.90;;;;;;6278917;22;20375;-82
2022/06/09 19:51:33;;;;;;;3.80;3.30;;;19.70;99.90;;;;;;6278547;22;20719;-83
2022/06/09 19:54:02;;;;;;;7.50;4.40;;;19.60;99.90;;;;;;6277885;22;20370;-83
2022/06/09 19:56:28;;;;;;;7.57;4.23;;;19.50;99.90;;;;;;6280321;22;20380;-83
2022/06/09 19:58:55;;;;;;;5.57;4.20;;;19.50;99.90;;;;;;6280523;22;20384;-83
2022/06/09 20:01:22;;;;;;;5.10;4.03;;;19.40;99.90;;;;;;6283730;22;20407;-84
2022/06/09 20:03:48;;;;;;;8.40;4.60;;;19.30;99.90;;;;;;6285631;22;20453;-84
2022/06/09 20:06:21;;;;;;;8.00;4.33;;;19.30;99.90;;;;;;6283043;22;20374;-84
2022/06/09 20:08:47;;;;;;;6.80;4.90;;;19.20;99.90;;;;;;6279763;22;20375;-84
2022/06/09 20:11:13;;;;;;;9.93;4.60;;;19.10;99.90;;;;;;6279664;22;20369;-84
2022/06/09 20:13:40;;;;;;;6.87;4.73;;;19.00;99.90;;;;;;6278230;22;20535;-83
2022/06/09 20:16:11;;;;;;;7.63;5.37;;;18.90;1.00;;;;;;6279840;22;20162;-83
2022/06/09 20:18:36;;;;;;;8.73;4.60;;;18.80;1.00;;;;;;6280283;22;20397;-85
2022/06/09 20:21:03;;;;;;;10.27;5.20;;;18.70;1.00;;;;;;6259157;22;20393;-85
2022/06/09 20:23:30;;;;;;;9.20;5.43;;;18.60;1.00;;;;;;6256885;22;21017;-84
2022/06/09 20:25:58;;;;;;;7.60;4.67;;;18.50;1.00;;;;;;6256484;22;20385;-84
2022/06/09 20:28:30;;;;;;;7.87;5.00;;;18.40;1.00;;;;;;6283779;22;20453;-84
2022/06/09 20:30:58;;;;;;;9.13;4.90;;;18.30;1.00;;;;;;6283382;22;20380;-84
2022/06/09 20:33:24;;;;;;;6.27;4.80;;;18.20;4.40;;;;;;6254290;22;20412;-84
2022/06/09 20:35:50;;;;;;;8.80;5.03;;;18.10;70.10;;;;;;6279492;22;20405;-85
2022/06/09 20:38:38;;;;;;;7.57;4.83;;;18.10;96.90;;;;;;6278844;22;20378;-83
2022/06/09 20:41:05;;;;;;;5.93;3.90;;;18.00;97.80;;;;;;6252943;22;20378;-82
2022/06/09 20:43:31;;;;;;;7.40;4.30;;;17.90;56.30;;;;;;6253490;22;20439;-82
2022/06/09 20:46:03;;;;;;;12.03;4.70;;;17.90;6.30;;;;;;6280253;22;20373;-84
2022/06/09 20:48:46;;;;;;;6.63;4.17;;;17.90;1.00;;;;;;6280791;22;20189;-82
2022/06/09 20:51:16;;;;;;;6.20;3.73;;;17.80;1.00;;;;;;6282406;22;20360;-83
2022/06/09 20:53:44;;;;;;;5.60;4.57;;;17.70;1.00;;;;;;6283939;22;20395;-84
2022/06/09 20:56:10;;;;;;;4.87;4.07;;;17.70;1.00;;;;;;6255675;22;20388;-84
2022/06/09 20:58:35;;;;;;;7.07;4.03;;;17.60;1.00;;;;;;6283290;22;20438;-83
2022/06/09 21:01:01;;;;;;;7.53;4.27;;;17.60;1.00;;;;;;6254813;22;20236;-84